Terminal Aerodrome Forecast
Issued by NWS

Home | Current Version | Previous Version | Graphics & Text | Print | Product List | Glossary On
Versions: 1 2 3 4 5 6 7 8 9 10 11 12 13 14 15 16 17
643
FTUS43 KBIS 141905 AAA
TAFMOT
TAF AMD
KMOT 141905Z 1419/1518 33012KT P6SM FEW020 SCT250
     FM150000 24005KT P6SM SKC
     FM151200 25009KT P6SM SCT040 BKN080
     FM151400 27013KT P6SM FEW040 SCT090
     FM151700 29016G24KT P6SM SCT090=

USA.gov is the U.S. government's official web portal to all federal, state and local government web resources and services.